sensor_id;sensor_type;location;lat;lon;timestamp;pressure;altitude;pressure_sealevel;temperature;humidity
25722;BME280;13578;53.450;15.496;2022-11-18T00:01:34;98816.31;;;-1.92;100.00
25722;BME280;13578;53.450;15.496;2022-11-18T00:04:34;98810.00;;;-1.91;100.00
25722;BME280;13578;53.450;15.496;2022-11-18T00:07:35;98810.34;;;-1.81;100.00
25722;BME280;13578;53.450;15.496;2022-11-18T00:10:37;98815.63;;;-1.96;100.00
25722;BME280;13578;53.450;15.496;2022-11-18T00:13:38;98813.88;;;-1.97;100.00
25722;BME280;13578;53.450;15.496;2022-11-18T00:16:59;98822.19;;;-2.01;100.00
25722;BME280;13578;53.450;15.496;2022-11-18T00:20:00;98824.25;;;-2.06;100.00
25722;BME280;13578;53.450;15.496;2022-11-18T00:23:01;98828.59;;;-2.04;100.00
25722;BME280;13578;53.450;15.496;2022-11-18T00:26:06;98820.94;;;-2.12;100.00
25722;BME280;13578;53.450;15.496;2022-11-18T00:29:08;98819.03;;;-2.10;100.00
25722;BME280;13578;53.450;15.496;2022-11-18T00:32:09;98818.00;;;-2.07;100.00
25722;BME280;13578;53.450;15.496;2022-11-18T00:35:10;98815.22;;;-2.05;100.00
25722;BME280;13578;53.450;15.496;2022-11-18T00:38:11;98816.59;;;-2.14;100.00
25722;BME280;13578;53.450;15.496;2022-11-18T00:41:14;98823.16;;;-2.20;100.00
25722;BME280;13578;53.450;15.496;2022-11-18T00:44:15;98824.03;;;-2.19;100.00
25722;BME280;13578;53.450;15.496;2022-11-18T00:47:16;98825.59;;;-2.15;100.00
25722;BME280;13578;53.450;15.496;2022-11-18T00:50:16;98839.63;;;-2.26;100.00
25722;BME280;13578;53.450;15.496;2022-11-18T00:53:17;98838.38;;;-2.36;100.00
25722;BME280;13578;53.450;15.496;2022-11-18T00:56:18;98835.50;;;-2.33;100.00
25722;BME280;13578;53.450;15.496;2022-11-18T00:59:19;98840.66;;;-2.29;100.00
25722;BME280;13578;53.450;15.496;2022-11-18T01:02:19;98840.97;;;-2.35;100.00
25722;BME280;13578;53.450;15.496;2022-11-18T01:05:20;98842.31;;;-2.26;100.00
25722;BME280;13578;53.450;15.496;2022-11-18T01:08:21;98840.75;;;-2.30;100.00
25722;BME280;13578;53.450;15.496;2022-11-18T01:11:22;98844.00;;;-2.41;100.00
25722;BME280;13578;53.450;15.496;2022-11-18T01:14:41;98835.84;;;-2.40;100.00
25722;BME280;13578;53.450;15.496;2022-11-18T01:17:41;98834.34;;;-2.45;100.00
25722;BME280;13578;53.450;15.496;2022-11-18T01:20:42;98826.53;;;-2.50;100.00
25722;BME280;13578;53.450;15.496;2022-11-18T01:23:43;98827.97;;;-2.43;100.00
25722;BME280;13578;53.450;15.496;2022-11-18T01:26:44;98827.50;;;-2.51;100.00
25722;BME280;13578;53.450;15.496;2022-11-18T01:29:45;98832.63;;;-2.46;100.00
25722;BME280;13578;53.450;15.496;2022-11-18T01:32:45;98828.03;;;-2.62;100.00
25722;BME280;13578;53.450;15.496;2022-11-18T01:35:46;98824.47;;;-2.45;100.00
25722;BME280;13578;53.450;15.496;2022-11-18T01:38:47;98819.44;;;-2.51;100.00
25722;BME280;13578;53.450;15.496;2022-11-18T01:41:48;98820.84;;;-2.44;100.00
25722;BME280;13578;53.450;15.496;2022-11-18T01:51:14;98834.91;;;-2.56;100.00
25722;BME280;13578;53.450;15.496;2022-11-18T01:54:37;98828.66;;;-2.57;100.00
25722;BME280;13578;53.450;15.496;2022-11-18T01:57:40;98840.75;;;-2.65;100.00
25722;BME280;13578;53.450;15.496;2022-11-18T02:00:41;98827.56;;;-2.70;100.00
25722;BME280;13578;53.450;15.496;2022-11-18T02:03:42;98831.00;;;-2.68;100.00
25722;BME280;13578;53.450;15.496;2022-11-18T02:06:45;98832.94;;;-2.70;100.00
25722;BME280;13578;53.450;15.496;2022-11-18T02:09:46;98846.19;;;-2.67;100.00
25722;BME280;13578;53.450;15.496;2022-11-18T02:12:48;98846.41;;;-2.72;100.00
25722;BME280;13578;53.450;15.496;2022-11-18T02:16:08;98855.94;;;-2.64;100.00
25722;BME280;13578;53.450;15.496;2022-11-18T02:29:43;98872.38;;;-2.35;100.00
25722;BME280;13578;53.450;15.496;2022-11-18T02:33:11;98858.28;;;-2.41;100.00
25722;BME280;13578;53.450;15.496;2022-11-18T02:39:37;98848.06;;;-2.16;100.00
25722;BME280;13578;53.450;15.496;2022-11-18T02:42:40;98841.03;;;-2.19;100.00
25722;BME280;13578;53.450;15.496;2022-11-18T02:45:47;98854.56;;;-2.20;100.00
25722;BME280;13578;53.450;15.496;2022-11-18T02:48:50;98849.91;;;-2.17;100.00
25722;BME280;13578;53.450;15.496;2022-11-18T02:51:53;98846.25;;;-2.16;100.00
25722;BME280;13578;53.450;15.496;2022-11-18T02:54:56;98857.09;;;-2.17;100.00
25722;BME280;13578;53.450;15.496;2022-11-18T02:57:58;98854.22;;;-2.14;100.00
25722;BME280;13578;53.450;15.496;2022-11-18T03:01:00;98859.22;;;-2.06;100.00
25722;BME280;13578;53.450;15.496;2022-11-18T03:04:01;98869.34;;;-2.12;100.00
25722;BME280;13578;53.450;15.496;2022-11-18T03:10:15;98865.31;;;-2.20;100.00
25722;BME280;13578;53.450;15.496;2022-11-18T03:13:19;98868.16;;;-2.24;100.00
25722;BME280;13578;53.450;15.496;2022-11-18T03:16:29;98864.47;;;-2.21;100.00
25722;BME280;13578;53.450;15.496;2022-11-18T03:19:50;98865.41;;;-2.22;100.00
25722;BME280;13578;53.450;15.496;2022-11-18T03:26:14;98861.50;;;-2.16;100.00
25722;BME280;13578;53.450;15.496;2022-11-18T03:29:25;98857.34;;;-2.22;100.00
25722;BME280;13578;53.450;15.496;2022-11-18T03:32:30;98851.78;;;-2.19;100.00
25722;BME280;13578;53.450;15.496;2022-11-18T03:35:34;98848.16;;;-2.18;100.00
25722;BME280;13578;53.450;15.496;2022-11-18T03:38:43;98849.09;;;-2.19;100.00
25722;BME280;13578;53.450;15.496;2022-11-18T03:41:56;98839.28;;;-2.20;100.00
25722;BME280;13578;53.450;15.496;2022-11-18T03:45:05;98841.34;;;-2.25;100.00
25722;BME280;13578;53.450;15.496;2022-11-18T03:48:21;98829.75;;;-2.26;100.00
25722;BME280;13578;53.450;15.496;2022-11-18T03:51:29;98825.09;;;-2.22;100.00
25722;BME280;13578;53.450;15.496;2022-11-18T03:54:34;98826.66;;;-2.18;100.00
25722;BME280;13578;53.450;15.496;2022-11-18T04:01:17;98837.56;;;-2.21;100.00
25722;BME280;13578;53.450;15.496;2022-11-18T04:04:22;98849.47;;;-2.09;100.00
25722;BME280;13578;53.450;15.496;2022-11-18T04:07:53;98829.66;;;-2.06;100.00
25722;BME280;13578;53.450;15.496;2022-11-18T04:10:58;98832.34;;;-2.06;100.00
25722;BME280;13578;53.450;15.496;2022-11-18T04:14:02;98826.97;;;-2.06;100.00
25722;BME280;13578;53.450;15.496;2022-11-18T04:17:09;98830.75;;;-2.11;100.00
25722;BME280;13578;53.450;15.496;2022-11-18T04:20:19;98832.72;;;-2.14;100.00
25722;BME280;13578;53.450;15.496;2022-11-18T04:23:20;98820.88;;;-2.10;100.00
25722;BME280;13578;53.450;15.496;2022-11-18T04:26:20;98816.34;;;-2.10;100.00
25722;BME280;13578;53.450;15.496;2022-11-18T04:29:21;98817.31;;;-2.11;100.00
25722;BME280;13578;53.450;15.496;2022-11-18T04:32:22;98816.69;;;-2.16;100.00
25722;BME280;13578;53.450;15.496;2022-11-18T04:35:23;98827.25;;;-2.13;100.00
25722;BME280;13578;53.450;15.496;2022-11-18T04:38:24;98822.75;;;-2.12;100.00
25722;BME280;13578;53.450;15.496;2022-11-18T04:41:24;98820.56;;;-2.21;100.00
25722;BME280;13578;53.450;15.496;2022-11-18T04:44:45;98828.81;;;-2.25;100.00
25722;BME280;13578;53.450;15.496;2022-11-18T04:47:45;98824.19;;;-2.22;100.00
25722;BME280;13578;53.450;15.496;2022-11-18T04:50:46;98828.72;;;-2.23;100.00
25722;BME280;13578;53.450;15.496;2022-11-18T04:53:47;98835.38;;;-2.30;100.00
25722;BME280;13578;53.450;15.496;2022-11-18T04:56:48;98819.72;;;-2.22;100.00
25722;BME280;13578;53.450;15.496;2022-11-18T04:59:48;98837.88;;;-2.27;100.00
25722;BME280;13578;53.450;15.496;2022-11-18T05:02:49;98847.78;;;-2.28;100.00
25722;BME280;13578;53.450;15.496;2022-11-18T05:05:49;98830.94;;;-2.31;100.00
25722;BME280;13578;53.450;15.496;2022-11-18T05:08:50;98834.75;;;-2.35;100.00
25722;BME280;13578;53.450;15.496;2022-11-18T05:11:51;98833.94;;;-2.37;100.00
25722;BME280;13578;53.450;15.496;2022-11-18T05:15:10;98842.81;;;-2.35;100.00
25722;BME280;13578;53.450;15.496;2022-11-18T05:18:10;98836.88;;;-2.42;100.00
25722;BME280;13578;53.450;15.496;2022-11-18T05:21:11;98843.19;;;-2.43;100.00
25722;BME280;13578;53.450;15.496;2022-11-18T05:24:12;98853.22;;;-2.47;100.00
25722;BME280;13578;53.450;15.496;2022-11-18T05:27:13;98853.09;;;-2.44;100.00
25722;BME280;13578;53.450;15.496;2022-11-18T05:30:14;98860.50;;;-2.49;100.00
25722;BME280;13578;53.450;15.496;2022-11-18T05:33:15;98863.28;;;-2.50;100.00
25722;BME280;13578;53.450;15.496;2022-11-18T05:36:18;98868.41;;;-2.46;100.00
25722;BME280;13578;53.450;15.496;2022-11-18T05:39:18;98865.81;;;-2.47;100.00
25722;BME280;13578;53.450;15.496;2022-11-18T05:42:19;98875.75;;;-2.49;100.00
25722;BME280;13578;53.450;15.496;2022-11-18T05:45:39;98872.50;;;-2.56;100.00
25722;BME280;13578;53.450;15.496;2022-11-18T05:48:39;98872.69;;;-2.59;100.00
25722;BME280;13578;53.450;15.496;2022-11-18T05:51:40;98889.88;;;-2.63;100.00
25722;BME280;13578;53.450;15.496;2022-11-18T05:54:44;98898.03;;;-2.65;100.00
25722;BME280;13578;53.450;15.496;2022-11-18T05:57:47;98891.63;;;-2.62;100.00
25722;BME280;13578;53.450;15.496;2022-11-18T06:00:50;98896.16;;;-2.63;100.00
25722;BME280;13578;53.450;15.496;2022-11-18T06:03:52;98895.75;;;-2.73;100.00
25722;BME280;13578;53.450;15.496;2022-11-18T06:07:01;98900.84;;;-2.68;100.00
25722;BME280;13578;53.450;15.496;2022-11-18T06:10:03;98907.91;;;-2.65;100.00
25722;BME280;13578;53.450;15.496;2022-11-18T06:13:07;98905.16;;;-2.64;100.00
25722;BME280;13578;53.450;15.496;2022-11-18T06:16:11;98900.56;;;-2.62;100.00
25722;BME280;13578;53.450;15.496;2022-11-18T06:19:12;98909.09;;;-2.71;100.00
25722;BME280;13578;53.450;15.496;2022-11-18T06:22:13;98916.47;;;-2.57;100.00
25722;BME280;13578;53.450;15.496;2022-11-18T06:25:14;98926.72;;;-2.65;100.00
25722;BME280;13578;53.450;15.496;2022-11-18T06:28:16;98929.41;;;-2.65;100.00
25722;BME280;13578;53.450;15.496;2022-11-18T06:31:17;98924.19;;;-2.68;100.00
25722;BME280;13578;53.450;15.496;2022-11-18T06:34:18;98930.75;;;-2.57;100.00
25722;BME280;13578;53.450;15.496;2022-11-18T06:37:19;98929.91;;;-2.57;100.00
25722;BME280;13578;53.450;15.496;2022-11-18T06:40:22;98930.34;;;-2.49;100.00
25722;BME280;13578;53.450;15.496;2022-11-18T06:43:22;98935.09;;;-2.54;100.00
25722;BME280;13578;53.450;15.496;2022-11-18T06:46:38;98943.75;;;-2.47;100.00
25722;BME280;13578;53.450;15.496;2022-11-18T06:49:57;98954.50;;;-2.47;100.00
25722;BME280;13578;53.450;15.496;2022-11-18T06:53:01;98966.09;;;-2.47;100.00
25722;BME280;13578;53.450;15.496;2022-11-18T06:56:10;98964.53;;;-2.51;100.00
25722;BME280;13578;53.450;15.496;2022-11-18T06:59:14;98967.03;;;-2.48;100.00
25722;BME280;13578;53.450;15.496;2022-11-18T07:02:14;98971.38;;;-2.45;100.00
25722;BME280;13578;53.450;15.496;2022-11-18T07:05:18;98973.66;;;-2.55;100.00
25722;BME280;13578;53.450;15.496;2022-11-18T07:08:18;98963.72;;;-2.53;100.00
25722;BME280;13578;53.450;15.496;2022-11-18T07:11:21;98965.28;;;-2.49;100.00
25722;BME280;13578;53.450;15.496;2022-11-18T07:14:22;98973.31;;;-2.47;100.00
25722;BME280;13578;53.450;15.496;2022-11-18T07:17:23;98978.72;;;-2.49;100.00
25722;BME280;13578;53.450;15.496;2022-11-18T07:20:23;98989.03;;;-2.40;100.00
25722;BME280;13578;53.450;15.496;2022-11-18T07:23:24;98989.66;;;-2.52;100.00
25722;BME280;13578;53.450;15.496;2022-11-18T07:26:25;98994.84;;;-2.49;100.00
25722;BME280;13578;53.450;15.496;2022-11-18T07:29:25;98996.47;;;-2.45;100.00
25722;BME280;13578;53.450;15.496;2022-11-18T07:32:26;99004.81;;;-2.51;100.00
25722;BME280;13578;53.450;15.496;2022-11-18T07:35:26;99010.69;;;-2.43;100.00
25722;BME280;13578;53.450;15.496;2022-11-18T07:38:27;99014.88;;;-2.37;100.00
25722;BME280;13578;53.450;15.496;2022-11-18T07:41:29;99020.25;;;-2.37;100.00
25722;BME280;13578;53.450;15.496;2022-11-18T07:44:29;99023.97;;;-2.40;100.00
25722;BME280;13578;53.450;15.496;2022-11-18T07:47:32;99020.47;;;-2.42;100.00
25722;BME280;13578;53.450;15.496;2022-11-18T07:50:33;99019.84;;;-2.47;100.00
25722;BME280;13578;53.450;15.496;2022-11-18T07:53:34;99028.00;;;-2.31;100.00
25722;BME280;13578;53.450;15.496;2022-11-18T07:56:35;99022.00;;;-2.36;100.00
25722;BME280;13578;53.450;15.496;2022-11-18T07:59:35;99020.19;;;-2.35;100.00
25722;BME280;13578;53.450;15.496;2022-11-18T08:02:36;99024.31;;;-2.28;100.00
25722;BME280;13578;53.450;15.496;2022-11-18T08:05:37;99028.00;;;-2.31;100.00
25722;BME280;13578;53.450;15.496;2022-11-18T08:08:38;99037.16;;;-2.16;100.00
25722;BME280;13578;53.450;15.496;2022-11-18T08:11:38;99032.09;;;-2.04;100.00
25722;BME280;13578;53.450;15.496;2022-11-18T08:14:40;99031.94;;;-2.01;100.00
25722;BME280;13578;53.450;15.496;2022-11-18T08:17:40;99029.88;;;-1.96;100.00
25722;BME280;13578;53.450;15.496;2022-11-18T08:20:41;99035.66;;;-1.86;100.00
25722;BME280;13578;53.450;15.496;2022-11-18T08:23:42;99038.78;;;-1.77;100.00
25722;BME280;13578;53.450;15.496;2022-11-18T08:26:43;99038.13;;;-1.82;100.00
25722;BME280;13578;53.450;15.496;2022-11-18T08:29:43;99048.72;;;-1.79;100.00
25722;BME280;13578;53.450;15.496;2022-11-18T08:32:44;99053.94;;;-1.76;100.00
25722;BME280;13578;53.450;15.496;2022-11-18T08:35:44;99045.41;;;-1.66;100.00
25722;BME280;13578;53.450;15.496;2022-11-18T08:38:45;99039.88;;;-1.63;100.00
25722;BME280;13578;53.450;15.496;2022-11-18T08:41:46;99041.44;;;-1.59;100.00
25722;BME280;13578;53.450;15.496;2022-11-18T08:44:47;99045.41;;;-1.49;100.00
25722;BME280;13578;53.450;15.496;2022-11-18T08:47:48;99040.94;;;-1.32;100.00
25722;BME280;13578;53.450;15.496;2022-11-18T08:50:49;99047.91;;;-1.28;100.00
25722;BME280;13578;53.450;15.496;2022-11-18T08:53:49;99027.78;;;-1.21;100.00
25722;BME280;13578;53.450;15.496;2022-11-18T08:56:50;99030.31;;;-1.18;100.00
25722;BME280;13578;53.450;15.496;2022-11-18T08:59:51;99036.31;;;-1.13;100.00
25722;BME280;13578;53.450;15.496;2022-11-18T09:02:51;99028.59;;;-1.03;100.00
25722;BME280;13578;53.450;15.496;2022-11-18T09:05:52;99039.50;;;-1.06;100.00
25722;BME280;13578;53.450;15.496;2022-11-18T09:08:53;99043.81;;;-0.86;100.00
25722;BME280;13578;53.450;15.496;2022-11-18T09:11:54;99041.91;;;-0.84;100.00
25722;BME280;13578;53.450;15.496;2022-11-18T09:14:54;99046.97;;;-0.77;100.00
25722;BME280;13578;53.450;15.496;2022-11-18T09:17:56;99039.88;;;-0.62;100.00
25722;BME280;13578;53.450;15.496;2022-11-18T09:21:02;99037.59;;;-0.70;100.00
25722;BME280;13578;53.450;15.496;2022-11-18T09:24:04;99046.28;;;-0.65;100.00
25722;BME280;13578;53.450;15.496;2022-11-18T09:27:05;99053.84;;;-0.56;100.00
25722;BME280;13578;53.450;15.496;2022-11-18T09:30:06;99067.88;;;-0.49;100.00
25722;BME280;13578;53.450;15.496;2022-11-18T09:33:07;99049.69;;;-0.45;100.00
25722;BME280;13578;53.450;15.496;2022-11-18T09:36:16;99055.59;;;-0.39;100.00
25722;BME280;13578;53.450;15.496;2022-11-18T09:39:17;99048.97;;;-0.33;100.00
25722;BME280;13578;53.450;15.496;2022-11-18T09:45:42;99052.28;;;-0.44;100.00
25722;BME280;13578;53.450;15.496;2022-11-18T09:48:44;99056.03;;;-0.46;100.00
25722;BME280;13578;53.450;15.496;2022-11-18T09:55:14;99047.34;;;-0.36;100.00
25722;BME280;13578;53.450;15.496;2022-11-18T09:58:34;99044.19;;;-0.28;100.00
25722;BME280;13578;53.450;15.496;2022-11-18T10:01:35;99043.94;;;-0.23;100.00
25722;BME280;13578;53.450;15.496;2022-11-18T10:04:36;99028.63;;;-0.23;100.00
25722;BME280;13578;53.450;15.496;2022-11-18T10:07:49;99023.50;;;-0.27;100.00
25722;BME280;13578;53.450;15.496;2022-11-18T10:11:16;99023.47;;;-0.11;100.00
25722;BME280;13578;53.450;15.496;2022-11-18T10:24:10;99026.50;;;0.29;100.00
25722;BME280;13578;53.450;15.496;2022-11-18T10:27:14;99015.78;;;0.27;100.00
25722;BME280;13578;53.450;15.496;2022-11-18T10:30:25;99034.19;;;0.21;100.00
25722;BME280;13578;53.450;15.496;2022-11-18T10:33:27;99028.06;;;0.33;100.00
25722;BME280;13578;53.450;15.496;2022-11-18T10:36:30;99033.63;;;0.30;100.00
25722;BME280;13578;53.450;15.496;2022-11-18T10:39:48;99039.22;;;0.27;100.00
25722;BME280;13578;53.450;15.496;2022-11-18T10:42:49;99032.13;;;0.40;100.00
25722;BME280;13578;53.450;15.496;2022-11-18T10:45:49;99048.53;;;0.52;100.00
25722;BME280;13578;53.450;15.496;2022-11-18T10:52:12;99039.00;;;0.46;100.00
25722;BME280;13578;53.450;15.496;2022-11-18T10:58:14;99042.44;;;0.48;100.00
25722;BME280;13578;53.450;15.496;2022-11-18T11:01:25;99044.38;;;0.46;100.00
25722;BME280;13578;53.450;15.496;2022-11-18T11:04:26;99041.06;;;0.41;100.00
25722;BME280;13578;53.450;15.496;2022-11-18T11:07:36;99034.03;;;0.38;100.00
25722;BME280;13578;53.450;15.496;2022-11-18T11:10:37;99050.94;;;0.56;100.00
25722;BME280;13578;53.450;15.496;2022-11-18T11:13:39;99048.19;;;0.58;100.00
25722;BME280;13578;53.450;15.496;2022-11-18T11:20:18;99046.44;;;0.57;100.00
25722;BME280;13578;53.450;15.496;2022-11-18T11:23:22;99054.56;;;0.71;100.00
25722;BME280;13578;53.450;15.496;2022-11-18T11:26:27;99058.63;;;0.78;100.00
25722;BME280;13578;53.450;15.496;2022-11-18T11:33:46;99042.22;;;0.96;100.00
25722;BME280;13578;53.450;15.496;2022-11-18T11:40:34;99032.75;;;0.74;100.00
25722;BME280;13578;53.450;15.496;2022-11-18T11:43:57;99034.31;;;0.78;100.00
25722;BME280;13578;53.450;15.496;2022-11-18T11:50:51;99032.69;;;0.76;100.00
25722;BME280;13578;53.450;15.496;2022-11-18T11:54:06;99035.09;;;0.81;100.00
25722;BME280;13578;53.450;15.496;2022-11-18T12:00:39;99029.69;;;0.66;100.00
25722;BME280;13578;53.450;15.496;2022-11-18T12:03:49;99032.38;;;0.66;100.00
25722;BME280;13578;53.450;15.496;2022-11-18T12:06:53;99027.25;;;0.61;100.00
25722;BME280;13578;53.450;15.496;2022-11-18T12:17:31;99052.13;;;0.67;100.00
25722;BME280;13578;53.450;15.496;2022-11-18T12:20:44;99055.69;;;0.67;100.00
25722;BME280;13578;53.450;15.496;2022-11-18T12:30:22;99057.94;;;0.75;100.00
25722;BME280;13578;53.450;15.496;2022-11-18T12:33:23;99068.84;;;0.73;100.00
25722;BME280;13578;53.450;15.496;2022-11-18T12:36:36;99067.31;;;0.84;100.00
25722;BME280;13578;53.450;15.496;2022-11-18T12:42:44;99067.88;;;0.74;100.00
25722;BME280;13578;53.450;15.496;2022-11-18T12:46:04;99063.31;;;0.60;100.00
25722;BME280;13578;53.450;15.496;2022-11-18T12:55:30;99076.22;;;0.55;100.00
25722;BME280;13578;53.450;15.496;2022-11-18T12:58:32;99084.53;;;0.67;100.00
25722;BME280;13578;53.450;15.496;2022-11-18T13:01:33;99081.75;;;0.68;100.00
25722;BME280;13578;53.450;15.496;2022-11-18T13:04:34;99075.34;;;0.55;100.00
25722;BME280;13578;53.450;15.496;2022-11-18T13:07:43;99075.19;;;0.58;100.00
25722;BME280;13578;53.450;15.496;2022-11-18T13:11:15;99078.44;;;0.49;100.00
25722;BME280;13578;53.450;15.496;2022-11-18T13:14:39;99080.19;;;0.34;100.00
25722;BME280;13578;53.450;15.496;2022-11-18T13:18:25;99088.97;;;0.37;100.00
25722;BME280;13578;53.450;15.496;2022-11-18T13:21:27;99092.31;;;0.26;100.00
25722;BME280;13578;53.450;15.496;2022-11-18T13:24:49;99092.69;;;0.20;100.00
25722;BME280;13578;53.450;15.496;2022-11-18T13:28:17;99111.44;;;0.07;100.00
25722;BME280;13578;53.450;15.496;2022-11-18T13:31:32;99108.13;;;0.02;100.00
25722;BME280;13578;53.450;15.496;2022-11-18T13:34:55;99117.78;;;-0.10;100.00
25722;BME280;13578;53.450;15.496;2022-11-18T13:37:59;99117.16;;;0.01;100.00
25722;BME280;13578;53.450;15.496;2022-11-18T13:41:00;99129.19;;;-0.05;100.00
25722;BME280;13578;53.450;15.496;2022-11-18T13:44:24;99117.97;;;-0.13;100.00
25722;BME280;13578;53.450;15.496;2022-11-18T13:50:40;99128.91;;;-0.16;100.00
25722;BME280;13578;53.450;15.496;2022-11-18T13:53:43;99133.03;;;-0.25;100.00
25722;BME280;13578;53.450;15.496;2022-11-18T13:56:44;99134.50;;;-0.19;100.00
25722;BME280;13578;53.450;15.496;2022-11-18T13:59:47;99132.56;;;-0.33;100.00
25722;BME280;13578;53.450;15.496;2022-11-18T14:02:55;99131.03;;;-0.21;100.00
25722;BME280;13578;53.450;15.496;2022-11-18T14:05:57;99122.31;;;-0.26;100.00
25722;BME280;13578;53.450;15.496;2022-11-18T14:12:05;99122.03;;;-0.22;100.00
25722;BME280;13578;53.450;15.496;2022-11-18T14:18:35;99133.47;;;-0.17;100.00
25722;BME280;13578;53.450;15.496;2022-11-18T14:21:36;99130.75;;;-0.17;100.00
25722;BME280;13578;53.450;15.496;2022-11-18T14:24:37;99132.22;;;-0.27;100.00
25722;BME280;13578;53.450;15.496;2022-11-18T14:27:40;99134.81;;;-0.25;100.00
25722;BME280;13578;53.450;15.496;2022-11-18T14:30:55;99137.09;;;-0.18;100.00
25722;BME280;13578;53.450;15.496;2022-11-18T14:34:16;99130.31;;;-0.25;100.00
25722;BME280;13578;53.450;15.496;2022-11-18T14:37:20;99146.84;;;-0.31;100.00
25722;BME280;13578;53.450;15.496;2022-11-18T14:40:21;99147.72;;;-0.30;100.00
25722;BME280;13578;53.450;15.496;2022-11-18T14:43:22;99152.59;;;-0.37;100.00
25722;BME280;13578;53.450;15.496;2022-11-18T14:46:22;99167.09;;;-0.40;100.00
25722;BME280;13578;53.450;15.496;2022-11-18T14:49:26;99148.75;;;-0.33;100.00
25722;BME280;13578;53.450;15.496;2022-11-18T14:52:29;99150.84;;;-0.38;100.00
25722;BME280;13578;53.450;15.496;2022-11-18T14:55:29;99156.88;;;-0.51;100.00
25722;BME280;13578;53.450;15.496;2022-11-18T14:58:30;99166.34;;;-0.59;100.00
25722;BME280;13578;53.450;15.496;2022-11-18T15:01:30;99164.47;;;-0.57;100.00
25722;BME280;13578;53.450;15.496;2022-11-18T15:04:31;99166.09;;;-0.71;100.00
25722;BME280;13578;53.450;15.496;2022-11-18T15:07:32;99170.75;;;-0.74;100.00
25722;BME280;13578;53.450;15.496;2022-11-18T15:10:33;99181.69;;;-0.77;100.00
25722;BME280;13578;53.450;15.496;2022-11-18T15:13:34;99187.41;;;-0.84;100.00
25722;BME280;13578;53.450;15.496;2022-11-18T15:16:34;99186.22;;;-0.96;100.00
25722;BME280;13578;53.450;15.496;2022-11-18T15:19:35;99194.72;;;-1.03;100.00
25722;BME280;13578;53.450;15.496;2022-11-18T15:22:36;99191.47;;;-0.92;100.00
25722;BME280;13578;53.450;15.496;2022-11-18T15:25:37;99184.25;;;-0.92;100.00
25722;BME280;13578;53.450;15.496;2022-11-18T15:28:37;99192.56;;;-0.97;100.00
25722;BME280;13578;53.450;15.496;2022-11-18T15:31:38;99193.47;;;-0.96;100.00
25722;BME280;13578;53.450;15.496;2022-11-18T15:34:39;99197.81;;;-1.11;100.00
25722;BME280;13578;53.450;15.496;2022-11-18T15:37:39;99203.41;;;-1.16;100.00
25722;BME280;13578;53.450;15.496;2022-11-18T15:40:40;99211.59;;;-1.17;100.00
25722;BME280;13578;53.450;15.496;2022-11-18T15:43:41;99218.31;;;-1.26;100.00
25722;BME280;13578;53.450;15.496;2022-11-18T15:46:42;99217.88;;;-1.36;100.00
25722;BME280;13578;53.450;15.496;2022-11-18T15:49:44;99226.72;;;-1.32;100.00
25722;BME280;13578;53.450;15.496;2022-11-18T15:52:45;99226.22;;;-1.40;100.00
25722;BME280;13578;53.450;15.496;2022-11-18T15:55:45;99231.13;;;-1.31;100.00
25722;BME280;13578;53.450;15.496;2022-11-18T15:59:03;99234.94;;;-1.35;100.00
25722;BME280;13578;53.450;15.496;2022-11-18T16:02:04;99235.59;;;-1.49;100.00
25722;BME280;13578;53.450;15.496;2022-11-18T16:05:05;99247.94;;;-1.63;100.00
25722;BME280;13578;53.450;15.496;2022-11-18T16:08:06;99261.91;;;-1.73;100.00
25722;BME280;13578;53.450;15.496;2022-11-18T16:11:10;99263.88;;;-1.77;100.00
25722;BME280;13578;53.450;15.496;2022-11-18T16:14:30;99263.34;;;-1.66;100.00
25722;BME280;13578;53.450;15.496;2022-11-18T16:17:31;99265.81;;;-1.62;100.00
25722;BME280;13578;53.450;15.496;2022-11-18T16:20:32;99253.72;;;-1.53;100.00
25722;BME280;13578;53.450;15.496;2022-11-18T16:23:32;99253.00;;;-1.56;100.00
25722;BME280;13578;53.450;15.496;2022-11-18T16:26:33;99250.19;;;-1.53;100.00
25722;BME280;13578;53.450;15.496;2022-11-18T16:29:36;99251.72;;;-1.48;100.00
25722;BME280;13578;53.450;15.496;2022-11-18T16:32:36;99255.66;;;-1.55;100.00
25722;BME280;13578;53.450;15.496;2022-11-18T16:35:45;99264.72;;;-1.57;100.00
25722;BME280;13578;53.450;15.496;2022-11-18T16:38:46;99264.72;;;-1.57;100.00
25722;BME280;13578;53.450;15.496;2022-11-18T16:41:46;99272.06;;;-1.61;100.00
25722;BME280;13578;53.450;15.496;2022-11-18T16:44:47;99270.91;;;-1.74;100.00
25722;BME280;13578;53.450;15.496;2022-11-18T16:47:47;99282.69;;;-1.77;100.00
25722;BME280;13578;53.450;15.496;2022-11-18T16:51:00;99278.63;;;-1.86;100.00
25722;BME280;13578;53.450;15.496;2022-11-18T16:54:06;99280.44;;;-2.05;100.00
25722;BME280;13578;53.450;15.496;2022-11-18T16:57:07;99278.03;;;-2.12;100.00
25722;BME280;13578;53.450;15.496;2022-11-18T17:00:08;99273.97;;;-2.01;100.00
25722;BME280;13578;53.450;15.496;2022-11-18T17:03:09;99278.03;;;-1.93;100.00
25722;BME280;13578;53.450;15.496;2022-11-18T17:06:10;99280.00;;;-1.96;100.00
25722;BME280;13578;53.450;15.496;2022-11-18T17:09:18;99283.63;;;-1.97;100.00
25722;BME280;13578;53.450;15.496;2022-11-18T17:12:19;99290.25;;;-2.04;100.00
25722;BME280;13578;53.450;15.496;2022-11-18T17:15:20;99288.66;;;-2.09;100.00
25722;BME280;13578;53.450;15.496;2022-11-18T17:18:20;99298.53;;;-2.28;100.00
25722;BME280;13578;53.450;15.496;2022-11-18T17:21:21;99300.22;;;-2.46;100.00
25722;BME280;13578;53.450;15.496;2022-11-18T17:24:23;99303.84;;;-2.47;100.00
25722;BME280;13578;53.450;15.496;2022-11-18T17:27:23;99307.94;;;-2.38;100.00
25722;BME280;13578;53.450;15.496;2022-11-18T17:30:24;99306.44;;;-2.46;100.00
25722;BME280;13578;53.450;15.496;2022-11-18T17:33:24;99311.72;;;-2.43;100.00
25722;BME280;13578;53.450;15.496;2022-11-18T17:36:26;99311.94;;;-2.49;100.00